Candelaria, Brazil
Current Conditions -  °F | °C
As of 10:00 PM on Wednesday 22 Oct 2014 (Local Time) from SBSM Reporting Station
Clear Clear  
Wind Chill: 66°   Ceiling: Unl
Heat Index: 66°   Visibility: 6mi
Dew Point: 59°   Wind: 6mph
Humidity: 78%   Direction: 110°ESE
Pressure: 30.06"   Gusts: NA
Location:  29.67°S, 52.79°W
Report Text: SBSM 230000Z 11005KT CAVOK 19/15 Q1018
Loading
Personal Weather Stations






























Interactive Weather Map
Tropical Storm Tracking
New forecast layout! Learn more

10-Day Weather Forecast

Advertisements
Track Severe Weather on mobile